createdAt,value
2018-09-27T00:01:00.110Z,101421.98
2018-09-27T00:03:31.365Z,101422.26
2018-09-27T00:06:02.399Z,101419.71
2018-09-27T00:08:32.579Z,101420.42
2018-09-27T00:11:04.709Z,101420.15
2018-09-27T00:13:35.947Z,101417.22
2018-09-27T00:16:06.986Z,101412.73
2018-09-27T00:18:38.445Z,101404.57
2018-09-27T00:21:10.143Z,101409.87
2018-09-27T00:23:41.411Z,101409.33
2018-09-27T00:26:12.622Z,101408.72
2018-09-27T00:28:42.990Z,101407.24
2018-09-27T00:31:14.121Z,101404.86
2018-09-27T00:33:44.410Z,101411.16
2018-09-27T00:36:14.778Z,101408.39
2018-09-27T00:38:46.799Z,101404.88
2018-09-27T00:41:17.209Z,101408.48
2018-09-27T00:43:47.381Z,101412.91
2018-09-27T00:46:17.842Z,101397.48
2018-09-27T00:48:48.933Z,101290.44
2018-09-27T00:51:21.469Z,101390.88
2018-09-27T00:53:52.607Z,101391.36
2018-09-27T00:56:23.729Z,101382.39
2018-09-27T00:58:58.312Z,101376.41
2018-09-27T01:01:28.741Z,101377.39
2018-09-27T01:03:59.383Z,101369.76
2018-09-27T01:06:31.094Z,101380.75
2018-09-27T01:09:02.196Z,101384.03
2018-09-27T01:11:33.378Z,101387.31
2018-09-27T01:14:10.580Z,101365.04
2018-09-27T01:17:03.718Z,101386.24
2018-09-27T01:19:38.423Z,101400.13
2018-09-27T01:22:13.290Z,101405.20
2018-09-27T01:24:44.938Z,101387.69
2018-09-27T01:27:17.075Z,101384.06
2018-09-27T01:29:50.278Z,101382.66
2018-09-27T01:32:21.857Z,101394.52
2018-09-27T01:34:55.625Z,101380.58
2018-09-27T01:37:28.615Z,101365.55
2018-09-27T01:40:02.798Z,101371.63
2018-09-27T01:42:35.221Z,101359.73
2018-09-27T01:45:09.626Z,101352.91
2018-09-27T01:47:41.707Z,101358.30
2018-09-27T01:50:13.509Z,101349.77
2018-09-27T01:52:45.198Z,101362.44
2018-09-27T01:55:16.618Z,101353.45
2018-09-27T01:57:49.380Z,101354.88
2018-09-27T02:00:25.530Z,101350.98
2018-09-27T02:03:00.166Z,101350.09
2018-09-27T02:05:32.851Z,101301.30
2018-09-27T02:08:07.686Z,101345.22
2018-09-27T02:10:42.793Z,101345.36
2018-09-27T02:13:16.132Z,101342.48
2018-09-27T02:15:49.918Z,101336.67
2018-09-27T02:18:25.924Z,101345.06
2018-09-27T02:20:58.090Z,101342.92
2018-09-27T02:23:32.919Z,101338.98
2018-09-27T02:26:08.165Z,101331.52
2018-09-27T02:29:39.044Z,101323.97
2018-09-27T02:32:30.031Z,101317.17
2018-09-27T02:35:03.116Z,101329.70
2018-09-27T02:37:35.081Z,101321.52
2018-09-27T02:40:06.642Z,101324.81
2018-09-27T02:42:37.116Z,101321.94
2018-09-27T02:45:08.900Z,101323.54
2018-09-27T02:47:40.474Z,101323.41
2018-09-27T02:50:14.440Z,101317.88
2018-09-27T02:52:46.171Z,101311.68
2018-09-27T02:55:17.509Z,101315.12
2018-09-27T02:57:48.029Z,101316.09
2018-09-27T03:00:23.078Z,101311.83
2018-09-27T03:02:53.471Z,101313.62
2018-09-27T03:05:23.935Z,101313.82
2018-09-27T03:07:55.594Z,101314.77
2018-09-27T03:10:26.958Z,101321.52
2018-09-27T03:12:57.446Z,101317.11
2018-09-27T03:15:29.706Z,101317.66
2018-09-27T03:18:00.114Z,101319.86
2018-09-27T03:20:32.045Z,101320.70
2018-09-27T03:23:03.348Z,101318.31
2018-09-27T03:25:34.586Z,101318.40
2018-09-27T03:28:05.967Z,101323.91
2018-09-27T03:30:37.399Z,101330.19
2018-09-27T03:33:09.195Z,101330.46
2018-09-27T03:35:40.522Z,101326.58
2018-09-27T03:38:11.116Z,101327.91
2018-09-27T03:40:41.991Z,101317.66
2018-09-27T03:43:13.418Z,101314.77
2018-09-27T03:45:44.725Z,101316.24
2018-09-27T03:48:16.105Z,101304.42
2018-09-27T03:50:47.311Z,101317.17
2018-09-27T03:53:18.100Z,101309.20
2018-09-27T03:55:48.521Z,101295.63
2018-09-27T03:58:18.916Z,101300.12
2018-09-27T04:00:50.950Z,101301.75
2018-09-27T04:03:21.411Z,101299.02
2018-09-27T04:05:54.284Z,101293.39
2018-09-27T04:08:25.563Z,101295.38
2018-09-27T04:10:55.836Z,101299.02
2018-09-27T04:13:27.510Z,101289.09
2018-09-27T04:15:57.880Z,101291.57
2018-09-27T04:18:28.406Z,101290.44
2018-09-27T04:21:04.930Z,101290.80
2018-09-27T04:23:35.313Z,101288.73
2018-09-27T04:26:05.752Z,101286.30
2018-09-27T04:28:36.051Z,101281.08
2018-09-27T04:31:06.486Z,101282.05
2018-09-27T04:33:37.196Z,101293.11
2018-09-27T04:36:08.276Z,101287.77
2018-09-27T04:38:39.555Z,101281.13
2018-09-27T04:41:09.950Z,101279.30
2018-09-27T04:43:40.513Z,101280.56
2018-09-27T04:46:11.213Z,101279.34
2018-09-27T04:48:40.605Z,101274.35
2018-09-27T04:51:11.156Z,101268.84
2018-09-27T04:53:42.817Z,101269.98
2018-09-27T04:56:13.248Z,101280.39
2018-09-27T04:58:43.841Z,101270.27
2018-09-27T05:01:14.407Z,101288.70
2018-09-27T05:03:46.878Z,101276.53
2018-09-27T05:06:18.019Z,101276.75
2018-09-27T05:08:48.684Z,101281.20
2018-09-27T05:11:19.098Z,101233.45
2018-09-27T05:13:50.032Z,101280.27
2018-09-27T05:16:20.462Z,101284.00
2018-09-27T05:18:50.926Z,101282.09
2018-09-27T05:21:21.411Z,101169.16
2018-09-27T05:23:51.850Z,101273.23
2018-09-27T05:26:22.503Z,101273.23
2018-09-27T05:28:54.563Z,101276.63
2018-09-27T05:31:26.566Z,101280.16
2018-09-27T05:33:59.040Z,101278.69
2018-09-27T05:36:29.423Z,101281.08
2018-09-27T05:38:59.898Z,101272.01
2018-09-27T05:41:33.106Z,101277.48
2018-09-27T05:44:02.725Z,101285.94
2018-09-27T05:46:34.426Z,101281.61
2018-09-27T05:49:05.711Z,101277.74
2018-09-27T05:51:37.372Z,101289.24
2018-09-27T05:54:07.762Z,101280.80
2018-09-27T05:56:42.332Z,101283.63
2018-09-27T05:59:14.529Z,101290.27
2018-09-27T06:01:44.828Z,101287.73
2018-09-27T06:04:19.668Z,101289.47
2018-09-27T06:06:52.678Z,101279.83
2018-09-27T06:09:25.303Z,101278.97
2018-09-27T06:11:59.282Z,101285.59
2018-09-27T06:14:33.066Z,101286.63
2018-09-27T06:17:06.244Z,101286.55
2018-09-27T06:19:41.719Z,101282.84
2018-09-27T06:22:16.384Z,101285.13
2018-09-27T06:24:49.594Z,101290.59
2018-09-27T06:27:23.555Z,101283.23
2018-09-27T06:30:00.079Z,101279.75
2018-09-27T06:32:31.413Z,101282.02
2018-09-27T06:35:02.789Z,101228.58
2018-09-27T06:37:34.402Z,101284.84
2018-09-27T06:40:06.800Z,101287.30
2018-09-27T06:42:38.158Z,101286.73
2018-09-27T06:47:46.076Z,101291.98
2018-09-27T06:50:16.537Z,101293.73
2018-09-27T06:52:47.207Z,101288.22
2018-09-27T06:55:16.940Z,101288.33
2018-09-27T06:57:51.708Z,101279.36
2018-09-27T07:00:24.707Z,101279.77
2018-09-27T07:02:54.367Z,101276.08
2018-09-27T07:05:25.763Z,101280.36
2018-09-27T07:07:55.340Z,101172.14
2018-09-27T07:10:25.148Z,101277.08
2018-09-27T07:12:55.252Z,101269.56
2018-09-27T07:15:29.406Z,101268.59
2018-09-27T07:17:59.789Z,101253.93
2018-09-27T07:20:30.559Z,101264.80
2018-09-27T07:23:00.423Z,101273.45
2018-09-27T07:25:31.167Z,101266.86
2018-09-27T07:30:30.997Z,101266.94
2018-09-27T07:33:00.603Z,101236.16
2018-09-27T07:35:30.197Z,101265.73
2018-09-27T07:38:00.332Z,101261.91
2018-09-27T07:40:34.509Z,101274.18
2018-09-27T07:43:04.361Z,101268.52
2018-09-27T07:45:35.497Z,101275.04
2018-09-27T07:48:05.077Z,101276.36
2018-09-27T07:50:35.054Z,101274.20
2018-09-27T07:53:05.824Z,101273.84
2018-09-27T07:55:35.645Z,101265.46
2018-09-27T07:58:05.743Z,101275.80
2018-09-27T08:00:35.350Z,101267.95
2018-09-27T08:03:07.313Z,101271.31
2018-09-27T08:05:37.432Z,101276.22
2018-09-27T08:08:07.732Z,101265.77
2018-09-27T08:10:37.862Z,101253.55
2018-09-27T08:13:07.760Z,101265.20
2018-09-27T08:15:38.773Z,101270.06
2018-09-27T08:18:09.943Z,101263.20
2018-09-27T08:20:39.834Z,101266.07
2018-09-27T08:23:10.963Z,101259.69
2018-09-27T08:25:41.317Z,101259.51
2018-09-27T08:28:11.723Z,101262.19
2018-09-27T08:30:43.764Z,101262.08
2018-09-27T08:33:13.867Z,101259.41
2018-09-27T08:35:48.786Z,101263.42
2018-09-27T08:38:18.475Z,101260.52
2018-09-27T08:40:50.004Z,101249.86
2018-09-27T08:43:19.649Z,101247.05
2018-09-27T08:45:49.269Z,101249.44
2018-09-27T08:48:24.176Z,101247.67
2018-09-27T08:50:53.829Z,101152.19
2018-09-27T08:53:26.505Z,101237.72
2018-09-27T08:55:56.628Z,101241.70
2018-09-27T08:58:26.990Z,101237.51
2018-09-27T09:00:57.081Z,101139.45
2018-09-27T09:03:27.732Z,101229.98
2018-09-27T09:05:58.068Z,101228.59
2018-09-27T09:08:27.954Z,101226.99
2018-09-27T09:11:01.579Z,101222.21
2018-09-27T09:13:31.802Z,101225.88
2018-09-27T09:16:03.104Z,101219.30
2018-09-27T09:18:37.141Z,101137.05
2018-09-27T09:21:08.497Z,101217.19
2018-09-27T09:23:39.639Z,101214.77
2018-09-27T09:26:09.298Z,101210.05
2018-09-27T09:28:41.113Z,101215.06
2018-09-27T09:31:12.179Z,101177.88
2018-09-27T09:33:42.678Z,101195.69
2018-09-27T09:36:13.994Z,101197.48
2018-09-27T09:38:44.354Z,101201.69
2018-09-27T09:41:13.946Z,101197.55
2018-09-27T09:43:43.719Z,101180.67
2018-09-27T09:46:15.935Z,101196.53
2018-09-27T09:48:47.668Z,101195.37
2018-09-27T09:51:17.569Z,101199.30
2018-09-27T09:53:48.500Z,101189.22
2018-09-27T09:56:18.204Z,101185.58
2018-09-27T09:58:47.986Z,101186.00
2018-09-27T10:01:19.465Z,101179.86
2018-09-27T10:03:50.236Z,101166.75
2018-09-27T10:06:20.028Z,101176.92
2018-09-27T10:08:56.520Z,101175.80
2018-09-27T10:11:33.010Z,101173.94
2018-09-27T10:14:08.827Z,101165.75
2018-09-27T10:19:25.506Z,101159.93
2018-09-27T10:21:58.694Z,101141.70
2018-09-27T10:24:34.065Z,101141.42
2018-09-27T10:27:07.152Z,101139.26
2018-09-27T10:29:38.820Z,101144.63
2018-09-27T10:32:13.571Z,101137.31
2018-09-27T10:34:44.423Z,101141.38
2018-09-27T10:37:16.827Z,101140.60
2018-09-27T10:39:51.796Z,101135.98
2018-09-27T10:42:21.980Z,101111.20
2018-09-27T10:44:52.771Z,101133.00
2018-09-27T10:47:23.585Z,101121.53
2018-09-27T10:49:54.521Z,101130.89
2018-09-27T10:52:25.444Z,101119.34
2018-09-27T10:54:55.958Z,101127.63
2018-09-27T10:57:26.720Z,101122.19
2018-09-27T11:00:06.608Z,101120.88
2018-09-27T11:02:37.732Z,101121.91
2018-09-27T11:05:15.651Z,101112.31
2018-09-27T11:07:46.401Z,101103.31
2018-09-27T11:10:18.294Z,101108.59
2018-09-27T11:12:47.917Z,101104.20
2018-09-27T11:15:18.686Z,101095.68
2018-09-27T11:17:48.255Z,101094.02
2018-09-27T11:20:36.927Z,101091.89
2018-09-27T11:23:13.276Z,101086.54
2018-09-27T11:28:54.461Z,101082.48
2018-09-27T11:31:31.199Z,101073.38
2018-09-27T11:34:02.455Z,101070.25
2018-09-27T11:36:34.553Z,101063.84
2018-09-27T11:39:09.815Z,101060.27
2018-09-27T11:41:40.530Z,101056.38
2018-09-27T11:44:11.357Z,101036.20
2018-09-27T11:46:41.547Z,101051.85
2018-09-27T11:49:13.734Z,101042.55
2018-09-27T11:51:43.559Z,101036.00
2018-09-27T11:54:13.947Z,101024.63
2018-09-27T11:56:45.061Z,101021.70
2018-09-27T11:59:17.908Z,101020.08
2018-09-27T12:01:49.625Z,101000.81
2018-09-27T12:04:19.499Z,100973.03
2018-09-27T12:06:52.148Z,100997.25
2018-09-27T12:09:22.681Z,100999.39
2018-09-27T12:11:52.649Z,100991.02
2018-09-27T12:14:23.171Z,100993.34
2018-09-27T12:16:56.649Z,100982.64
2018-09-27T12:19:26.673Z,100979.23
2018-09-27T12:21:56.521Z,100970.09
2018-09-27T12:24:27.214Z,100966.84
2018-09-27T12:26:57.793Z,100964.09
2018-09-27T12:29:27.707Z,100957.32
2018-09-27T12:31:58.572Z,100939.70
2018-09-27T12:34:28.266Z,100946.30
2018-09-27T12:36:59.378Z,100944.64
2018-09-27T12:39:31.998Z,100943.83
2018-09-27T12:42:04.753Z,100937.48
2018-09-27T12:44:35.432Z,100932.83
2018-09-27T12:47:07.392Z,100934.16
2018-09-27T12:49:37.432Z,100925.35
2018-09-27T12:52:10.618Z,100919.82
2018-09-27T12:54:42.071Z,100911.02
2018-09-27T12:57:12.041Z,100909.37
2018-09-27T12:59:44.291Z,100897.71
2018-09-27T13:02:19.310Z,100890.02
2018-09-27T13:04:50.231Z,100887.02
2018-09-27T13:07:25.682Z,100879.64
2018-09-27T13:09:56.517Z,100872.98
2018-09-27T13:12:29.218Z,100866.80
2018-09-27T13:15:05.407Z,100859.44
2018-09-27T13:17:42.047Z,100861.47
2018-09-27T13:20:14.426Z,100844.94
2018-09-27T13:22:48.296Z,100852.33
2018-09-27T13:25:19.066Z,100829.45
2018-09-27T13:27:52.032Z,100830.53
2018-09-27T13:30:30.136Z,100824.94
2018-09-27T13:33:00.808Z,100820.86
2018-09-27T13:35:31.376Z,100815.95
2018-09-27T13:38:03.241Z,100805.77
2018-09-27T13:40:34.604Z,100798.36
2018-09-27T13:43:07.418Z,100800.53
2018-09-27T13:48:09.978Z,100786.80
2018-09-27T13:50:40.697Z,100776.58
2018-09-27T13:53:11.417Z,100774.54
2018-09-27T13:55:43.314Z,100770.53
2018-09-27T13:58:14.571Z,100716.62
2018-09-27T14:00:47.181Z,100760.38
2018-09-27T14:03:17.795Z,100755.98
2018-09-27T14:05:49.523Z,100747.94
2018-09-27T14:08:21.729Z,100746.38
2018-09-27T14:10:54.600Z,100748.30
2018-09-27T14:13:34.052Z,100747.21
2018-09-27T14:16:08.723Z,100735.34
2018-09-27T14:18:40.041Z,100735.06
2018-09-27T14:21:11.418Z,100733.94
2018-09-27T14:23:43.612Z,100728.32
2018-09-27T14:26:17.257Z,100725.77
2018-09-27T14:28:48.767Z,100722.94
2018-09-27T14:31:20.971Z,100718.95
2018-09-27T14:33:56.833Z,100710.41
2018-09-27T14:36:30.002Z,100709.78
2018-09-27T14:39:02.471Z,100716.00
2018-09-27T14:41:35.215Z,100711.39
2018-09-27T14:44:06.766Z,100706.56
2018-09-27T14:46:39.256Z,100697.53
2018-09-27T14:49:11.795Z,100693.88
2018-09-27T14:51:45.238Z,100690.72
2018-09-27T14:54:19.647Z,100676.17
2018-09-27T14:56:52.096Z,100681.73
2018-09-27T14:59:24.916Z,100680.98
2018-09-27T15:01:57.613Z,100674.74
2018-09-27T15:04:35.389Z,100676.61
2018-09-27T15:07:08.310Z,100671.30
2018-09-27T15:09:41.295Z,100661.41
2018-09-27T15:12:14.125Z,100653.69
2018-09-27T15:14:46.141Z,100645.48
2018-09-27T15:17:18.726Z,100650.67
2018-09-27T15:19:50.410Z,100654.91
2018-09-27T15:22:22.918Z,100607.63
2018-09-27T15:24:55.278Z,100640.86
2018-09-27T15:27:30.957Z,100631.01
2018-09-27T15:30:13.278Z,100629.61
2018-09-27T15:32:44.665Z,100629.97
2018-09-27T15:35:16.514Z,100620.95
2018-09-27T15:37:48.021Z,100619.69
2018-09-27T15:40:20.192Z,100614.89
2018-09-27T15:42:52.494Z,100613.36
2018-09-27T15:45:29.278Z,100614.44
2018-09-27T15:48:02.172Z,100611.88
2018-09-27T15:50:32.772Z,100600.64
2018-09-27T15:53:03.282Z,100603.77
2018-09-27T15:55:35.913Z,100602.95
2018-09-27T15:58:08.041Z,100601.83
2018-09-27T16:00:42.077Z,100609.54
2018-09-27T16:03:18.389Z,100596.86
2018-09-27T16:05:51.659Z,100501.04
2018-09-27T16:08:26.280Z,100582.87
2018-09-27T16:10:57.844Z,100584.57
2018-09-27T16:13:29.490Z,100579.09
2018-09-27T16:16:01.153Z,100582.14
2018-09-27T16:18:32.803Z,100585.41
2018-09-27T16:21:04.242Z,100576.11
2018-09-27T16:23:39.058Z,100574.19
2018-09-27T16:26:11.918Z,100553.53
2018-09-27T16:28:44.379Z,100572.48
2018-09-27T16:31:16.245Z,100570.98
2018-09-27T16:33:47.613Z,100563.14
2018-09-27T16:36:19.688Z,100557.45
2018-09-27T16:38:51.211Z,100560.52
2018-09-27T16:41:26.224Z,100561.86
2018-09-27T16:43:58.638Z,100556.63
2018-09-27T16:46:30.072Z,100547.05
2018-09-27T16:49:02.451Z,100547.07
2018-09-27T16:51:34.343Z,100542.61
2018-09-27T16:54:07.689Z,100530.43
2018-09-27T16:56:39.659Z,100532.03
2018-09-27T16:59:12.242Z,100527.30
2018-09-27T17:01:45.360Z,100551.44
2018-09-27T17:04:24.998Z,100538.14
2018-09-27T17:06:57.206Z,100534.73
2018-09-27T17:09:29.765Z,100528.10
2018-09-27T17:12:01.575Z,100535.36
2018-09-27T17:14:37.902Z,100533.20
2018-09-27T17:17:10.973Z,100524.63
2018-09-27T17:19:43.437Z,100536.98
2018-09-27T17:22:15.497Z,100527.05
2018-09-27T17:24:46.470Z,100529.06
2018-09-27T17:27:18.636Z,100524.29
2018-09-27T17:29:52.457Z,100521.59
2018-09-27T17:32:23.336Z,100520.33
2018-09-27T17:34:57.061Z,100521.04
2018-09-27T17:37:28.989Z,100514.41
2018-09-27T17:40:01.150Z,100502.11
2018-09-27T17:42:31.849Z,100515.30
2018-09-27T17:45:05.910Z,100505.16
2018-09-27T17:47:37.450Z,100507.08
2018-09-27T17:50:10.105Z,100509.67
2018-09-27T17:52:41.638Z,100509.40
2018-09-27T17:55:14.255Z,100507.05
2018-09-27T17:57:47.220Z,100511.77
2018-09-27T18:00:22.569Z,100509.45
2018-09-27T18:02:54.287Z,100505.30
2018-09-27T18:05:26.536Z,100509.77
2018-09-27T18:08:01.860Z,100511.83
2018-09-27T18:10:34.768Z,100505.22
2018-09-27T18:13:07.397Z,100509.25
2018-09-27T18:15:38.627Z,100503.69
2018-09-27T18:18:09.755Z,100499.98
2018-09-27T18:20:41.212Z,100495.80
2018-09-27T18:23:12.849Z,100501.09
2018-09-27T18:25:43.867Z,100500.38
2018-09-27T18:28:15.288Z,100508.42
2018-09-27T18:30:45.906Z,100505.42
2018-09-27T18:33:22.277Z,100501.87
2018-09-27T18:35:54.555Z,100501.87
2018-09-27T18:38:29.127Z,100492.67
2018-09-27T18:41:05.371Z,100496.89
2018-09-27T18:43:38.586Z,100491.39
2018-09-27T18:46:12.397Z,100490.47
2018-09-27T18:48:44.762Z,100490.75
2018-09-27T18:51:18.462Z,100488.08
2018-09-27T18:53:50.786Z,100483.17
2018-09-27T18:56:35.400Z,100480.45
2018-09-27T18:59:08.629Z,100478.45
2018-09-27T19:01:40.437Z,100466.97
2018-09-27T19:04:12.837Z,100480.54
2018-09-27T19:06:53.225Z,100474.42
2018-09-27T19:09:24.801Z,100470.56
2018-09-27T19:11:57.822Z,100468.99
2018-09-27T19:14:33.753Z,100466.58
2018-09-27T19:17:07.893Z,100470.60
2018-09-27T19:19:42.226Z,100458.83
2018-09-27T19:22:14.667Z,100449.12
2018-09-27T19:24:45.699Z,100455.17
2018-09-27T19:27:20.774Z,100450.51
2018-09-27T19:29:59.574Z,100450.66
2018-09-27T19:32:39.577Z,100450.79
2018-09-27T19:35:25.354Z,100448.31
2018-09-27T19:38:03.053Z,100457.29
2018-09-27T19:40:34.485Z,100455.41
2018-09-27T19:43:05.047Z,100442.81
2018-09-27T19:45:36.472Z,100443.70
2018-09-27T19:48:14.310Z,100441.78
2018-09-27T19:53:29.778Z,100432.09
2018-09-27T19:56:04.074Z,100432.44
2018-09-27T19:58:41.137Z,100434.59
2018-09-27T20:01:14.569Z,100438.57
2018-09-27T20:03:47.167Z,100437.84
2018-09-27T20:06:20.465Z,100445.21
2018-09-27T20:08:51.533Z,100448.09
2018-09-27T20:11:23.697Z,100446.23
2018-09-27T20:13:55.273Z,100442.61
2018-09-27T20:16:25.121Z,100445.47
2018-09-27T20:19:09.247Z,100449.31
2018-09-27T20:21:41.158Z,100446.30
2018-09-27T20:24:15.086Z,100448.16
2018-09-27T20:26:45.149Z,100447.65
2018-09-27T20:29:17.644Z,100444.85
2018-09-27T20:31:50.333Z,100442.28
2018-09-27T20:34:26.586Z,100446.52
2018-09-27T20:36:58.043Z,100445.04
2018-09-27T20:39:28.729Z,100448.48
2018-09-27T20:41:59.493Z,100446.30
2018-09-27T20:44:32.626Z,100444.52
2018-09-27T20:47:02.390Z,100440.66
2018-09-27T20:49:34.285Z,100437.89
2018-09-27T20:52:03.991Z,100436.50
2018-09-27T20:54:36.970Z,100442.26
2018-09-27T20:57:06.551Z,100412.81
2018-09-27T20:59:37.822Z,100435.07
2018-09-27T21:02:07.978Z,100430.56
2018-09-27T21:04:38.557Z,100440.45
2018-09-27T21:07:08.232Z,100442.98
2018-09-27T21:09:40.446Z,100430.71
2018-09-27T21:12:11.995Z,100429.97
2018-09-27T21:14:50.289Z,100437.67
2018-09-27T21:17:23.267Z,100431.23
2018-09-27T21:19:55.038Z,100328.27
2018-09-27T21:22:28.248Z,100415.84
2018-09-27T21:24:59.527Z,100421.34
2018-09-27T21:27:38.102Z,100423.02
2018-09-27T21:30:10.396Z,100424.70
2018-09-27T21:32:41.462Z,100424.28
2018-09-27T21:35:14.083Z,100425.53
2018-09-27T21:37:44.884Z,100426.59
2018-09-27T21:40:16.081Z,100419.52
2018-09-27T21:42:45.689Z,100415.88
2018-09-27T21:45:17.944Z,100371.45
2018-09-27T21:47:50.421Z,100414.95
2018-09-27T21:50:22.210Z,100420.55
2018-09-27T21:52:51.919Z,100412.66
2018-09-27T21:55:23.375Z,100410.37
2018-09-27T21:57:52.904Z,100403.84
2018-09-27T22:00:27.175Z,100413.48
2018-09-27T22:02:57.392Z,100412.78
2018-09-27T22:05:26.924Z,100409.44
2018-09-27T22:07:58.077Z,100403.62
2018-09-27T22:10:28.647Z,100410.56
2018-09-27T22:13:00.793Z,100410.67
2018-09-27T22:15:30.638Z,100413.04
2018-09-27T22:18:00.412Z,100410.66
2018-09-27T22:20:30.143Z,100410.34
2018-09-27T22:23:00.415Z,100377.80
2018-09-27T22:25:30.037Z,100405.34
2018-09-27T22:28:00.182Z,100398.59
2018-09-27T22:30:29.809Z,100399.30
2018-09-27T22:32:59.378Z,100392.42
2018-09-27T22:35:28.879Z,100392.83
2018-09-27T22:38:00.529Z,100393.77
2018-09-27T22:40:32.363Z,100393.14
2018-09-27T22:43:03.331Z,100385.05
2018-09-27T22:45:32.768Z,100367.41
2018-09-27T22:48:03.705Z,100361.67
2018-09-27T22:50:33.203Z,100311.92
2018-09-27T22:53:03.576Z,100367.89
2018-09-27T22:55:33.024Z,100380.14
2018-09-27T22:58:02.646Z,100374.02
2018-09-27T23:00:32.878Z,100370.38
2018-09-27T23:03:05.587Z,100369.22
2018-09-27T23:05:36.691Z,100367.98
2018-09-27T23:08:07.193Z,100368.39
2018-09-27T23:10:36.712Z,100348.31
2018-09-27T23:13:09.883Z,100369.99
2018-09-27T23:15:41.319Z,100358.77
2018-09-27T23:18:11.721Z,100356.69
2018-09-27T23:20:41.712Z,100335.84
2018-09-27T23:23:15.898Z,100345.39
2018-09-27T23:25:47.857Z,100357.58
2018-09-27T23:28:17.864Z,100355.34
2018-09-27T23:30:49.596Z,100355.37
2018-09-27T23:33:19.227Z,100352.84
2018-09-27T23:35:48.873Z,100355.63
2018-09-27T23:38:18.736Z,100351.94
2018-09-27T23:40:48.240Z,100355.66
2018-09-27T23:43:17.773Z,100353.46
2018-09-27T23:45:47.911Z,100355.83
2018-09-27T23:48:17.953Z,100350.92
2018-09-27T23:50:47.953Z,100352.58
2018-09-27T23:53:17.789Z,100352.39
2018-09-27T23:55:47.478Z,100351.36
2018-09-27T23:58:17.133Z,100352.55
